Aérodrome :
LOGIN :

S'inscrire | Disclaimer

   EN    FR    IT 

 










Légende :    VFR   VFR Marginal   IFR   IFR Intensif   IFR Très Intensif
Visi : 
Plafond : 
>= 8 km
>= 3000ft
5 à 8 km
1000 à 3000 ft
1500m à 5 km
500 à 1000 ft
800 à 1500m
200 à 500 ft
< 800m
< 200 ft
Symboles :   Orages  Brouillard  Fortes neiges  Fortes précipitations  Vent > 20 kt
SIGMETs :   Divers  Orages  Givrage  Turbulence  Onde Orograph.  Cendres Volcan.






- Altitude de l'aérodrome : 142 ft
- Code IATA : FLR


LIRQ - Firenze Amerigo Vespucci

DERNIER METAR :
  • 280320Z 08003KT 9999 BKN070 17/12 Q1015

METARs EXPIRÉS :
  • 280250Z 11003KT 9999 SCT080 17/12 Q1015
  • 280220Z 10003KT 9999 SCT080 17/12 Q1015
  • 280150Z 09003KT CAVOK 18/11 Q1015
  • 280120Z 06002KT CAVOK 17/11 Q1016
  • 280050Z 14003KT 100V250 CAVOK 17/12 Q1016
  • 280020Z 10003KT CAVOK 18/11 Q1016
  • 272320Z VRB01KT CAVOK 18/12 Q1016
  • 272250Z 12003KT 100V170 CAVOK 18/12 Q1016

TAF TAF LIRQ
Valide du 28 à 00h jusqu'au 29 à 00h UTC


272300Z 2800/2824 VRB05KT 9999 FEW030
BECMG 2812/2814 25010KT
TEMPO 2815/2820 SHRA
BECMG 2816/2818 VRB05KT



MET'MAP, la Météo Aéronautique d'un coup d'oeil ! - Copyright ORBIFLY Décembre 2007 - Disclaimer

ORBIFLY MET'MAP TEAM :

Programmation & Développement : Alexandra Zaïnal
Sur une idée originale de : Baudouin d'Aumeries
Soutien technique & logistique : Manuel Goepfert
Assistance : Marc-Olivier Méhu




SOURCES & CREDITS :

   NOAA